sensor_id;sensor_type;location;lat;lon;timestamp;P1;durP1;ratioP1;P2;durP2;ratioP2
58946;SDS011;44724;52.332;4.978;2022-10-16T00:01:56;3.45;;;1.30;;
58946;SDS011;44724;52.332;4.978;2022-10-16T00:04:21;1.65;;;0.80;;
58946;SDS011;44724;52.332;4.978;2022-10-16T00:06:47;2.30;;;0.85;;
58946;SDS011;44724;52.332;4.978;2022-10-16T00:09:12;2.20;;;1.75;;
58946;SDS011;44724;52.332;4.978;2022-10-16T00:11:38;2.53;;;1.10;;
58946;SDS011;44724;52.332;4.978;2022-10-16T00:14:09;3.88;;;2.20;;
58946;SDS011;44724;52.332;4.978;2022-10-16T00:16:37;3.92;;;1.40;;
58946;SDS011;44724;52.332;4.978;2022-10-16T00:19:03;2.40;;;1.30;;
58946;SDS011;44724;52.332;4.978;2022-10-16T00:21:29;3.53;;;1.30;;
58946;SDS011;44724;52.332;4.978;2022-10-16T00:23:58;2.30;;;1.00;;
58946;SDS011;44724;52.332;4.978;2022-10-16T00:26:32;3.30;;;1.67;;
58946;SDS011;44724;52.332;4.978;2022-10-16T00:28:59;3.38;;;1.50;;
58946;SDS011;44724;52.332;4.978;2022-10-16T00:31:24;3.38;;;1.60;;
58946;SDS011;44724;52.332;4.978;2022-10-16T00:33:50;6.22;;;1.55;;
58946;SDS011;44724;52.332;4.978;2022-10-16T00:36:17;3.80;;;1.40;;
58946;SDS011;44724;52.332;4.978;2022-10-16T00:38:49;4.93;;;1.90;;
58946;SDS011;44724;52.332;4.978;2022-10-16T00:41:17;3.25;;;1.50;;
58946;SDS011;44724;52.332;4.978;2022-10-16T00:43:44;2.20;;;1.42;;
58946;SDS011;44724;52.332;4.978;2022-10-16T00:46:14;5.80;;;1.65;;
58946;SDS011;44724;52.332;4.978;2022-10-16T00:48:40;3.30;;;1.20;;
58946;SDS011;44724;52.332;4.978;2022-10-16T00:51:09;3.95;;;1.50;;
58946;SDS011;44724;52.332;4.978;2022-10-16T00:53:37;2.67;;;1.08;;
58946;SDS011;44724;52.332;4.978;2022-10-16T00:56:02;3.88;;;1.65;;
58946;SDS011;44724;52.332;4.978;2022-10-16T00:58:28;2.92;;;1.35;;
58946;SDS011;44724;52.332;4.978;2022-10-16T01:00:54;4.35;;;1.63;;
58946;SDS011;44724;52.332;4.978;2022-10-16T01:03:24;5.38;;;1.98;;
58946;SDS011;44724;52.332;4.978;2022-10-16T01:05:59;2.92;;;1.42;;
58946;SDS011;44724;52.332;4.978;2022-10-16T01:08:48;2.17;;;1.30;;
58946;SDS011;44724;52.332;4.978;2022-10-16T01:11:24;3.78;;;1.48;;
58946;SDS011;44724;52.332;4.978;2022-10-16T01:13:58;3.67;;;1.70;;
58946;SDS011;44724;52.332;4.978;2022-10-16T01:16:31;3.08;;;1.15;;
58946;SDS011;44724;52.332;4.978;2022-10-16T01:19:50;2.55;;;1.50;;
58946;SDS011;44724;52.332;4.978;2022-10-16T01:21:56;3.75;;;1.55;;
58946;SDS011;44724;52.332;4.978;2022-10-16T01:24:37;2.55;;;1.23;;
58946;SDS011;44724;52.332;4.978;2022-10-16T01:29:50;1.90;;;1.30;;
58946;SDS011;44724;52.332;4.978;2022-10-16T01:35:00;3.58;;;1.50;;
58946;SDS011;44724;52.332;4.978;2022-10-16T01:37:36;2.05;;;1.73;;
58946;SDS011;44724;52.332;4.978;2022-10-16T01:40:09;1.80;;;0.93;;
58946;SDS011;44724;52.332;4.978;2022-10-16T01:42:56;4.25;;;1.20;;
58946;SDS011;44724;52.332;4.978;2022-10-16T01:45:26;0.60;;;0.60;;
58946;SDS011;44724;52.332;4.978;2022-10-16T01:47:55;1.85;;;1.00;;
58946;SDS011;44724;52.332;4.978;2022-10-16T01:50:21;2.78;;;1.38;;
58946;SDS011;44724;52.332;4.978;2022-10-16T01:52:48;1.67;;;1.10;;
58946;SDS011;44724;52.332;4.978;2022-10-16T01:55:19;3.05;;;1.10;;
58946;SDS011;44724;52.332;4.978;2022-10-16T01:57:57;2.53;;;1.40;;
58946;SDS011;44724;52.332;4.978;2022-10-16T02:00:25;2.38;;;1.30;;
58946;SDS011;44724;52.332;4.978;2022-10-16T02:02:53;1.60;;;1.10;;
58946;SDS011;44724;52.332;4.978;2022-10-16T02:07:56;1.77;;;1.20;;
58946;SDS011;44724;52.332;4.978;2022-10-16T02:10:21;3.88;;;1.27;;
58946;SDS011;44724;52.332;4.978;2022-10-16T02:12:50;2.55;;;1.35;;
58946;SDS011;44724;52.332;4.978;2022-10-16T02:15:24;2.65;;;1.23;;
58946;SDS011;44724;52.332;4.978;2022-10-16T02:17:52;1.98;;;1.25;;
58946;SDS011;44724;52.332;4.978;2022-10-16T02:20:18;1.17;;;1.08;;
58946;SDS011;44724;52.332;4.978;2022-10-16T02:22:50;4.78;;;1.20;;
58946;SDS011;44724;52.332;4.978;2022-10-16T02:28:15;2.00;;;1.17;;
58946;SDS011;44724;52.332;4.978;2022-10-16T02:30:44;2.53;;;1.33;;
58946;SDS011;44724;52.332;4.978;2022-10-16T02:33:14;3.65;;;1.17;;
58946;SDS011;44724;52.332;4.978;2022-10-16T02:35:41;1.65;;;1.30;;
58946;SDS011;44724;52.332;4.978;2022-10-16T02:38:10;1.85;;;1.30;;
58946;SDS011;44724;52.332;4.978;2022-10-16T02:40:37;1.38;;;1.13;;
58946;SDS011;44724;52.332;4.978;2022-10-16T02:43:03;1.83;;;1.60;;
58946;SDS011;44724;52.332;4.978;2022-10-16T02:45:29;2.30;;;1.48;;
58946;SDS011;44724;52.332;4.978;2022-10-16T02:47:55;4.10;;;1.67;;
58946;SDS011;44724;52.332;4.978;2022-10-16T02:50:23;2.67;;;1.65;;
58946;SDS011;44724;52.332;4.978;2022-10-16T02:52:50;3.05;;;1.60;;
58946;SDS011;44724;52.332;4.978;2022-10-16T02:55:15;2.80;;;1.90;;
58946;SDS011;44724;52.332;4.978;2022-10-16T02:57:41;2.35;;;2.05;;
58946;SDS011;44724;52.332;4.978;2022-10-16T03:00:08;3.22;;;1.92;;
58946;SDS011;44724;52.332;4.978;2022-10-16T03:02:35;2.22;;;2.03;;
58946;SDS011;44724;52.332;4.978;2022-10-16T03:05:01;3.33;;;2.08;;
58946;SDS011;44724;52.332;4.978;2022-10-16T03:07:26;4.35;;;2.28;;
58946;SDS011;44724;52.332;4.978;2022-10-16T03:09:51;2.40;;;1.35;;
58946;SDS011;44724;52.332;4.978;2022-10-16T03:12:17;4.63;;;2.03;;
58946;SDS011;44724;52.332;4.978;2022-10-16T03:14:42;3.17;;;1.98;;
58946;SDS011;44724;52.332;4.978;2022-10-16T03:17:07;2.85;;;2.22;;
58946;SDS011;44724;52.332;4.978;2022-10-16T03:19:33;4.40;;;2.63;;
58946;SDS011;44724;52.332;4.978;2022-10-16T03:21:58;3.00;;;2.40;;
58946;SDS011;44724;52.332;4.978;2022-10-16T03:24:24;3.58;;;2.30;;
58946;SDS011;44724;52.332;4.978;2022-10-16T03:26:49;5.05;;;2.50;;
58946;SDS011;44724;52.332;4.978;2022-10-16T03:29:14;3.08;;;1.52;;
58946;SDS011;44724;52.332;4.978;2022-10-16T03:31:40;4.32;;;2.40;;
58946;SDS011;44724;52.332;4.978;2022-10-16T03:34:05;3.13;;;2.00;;
58946;SDS011;44724;52.332;4.978;2022-10-16T03:36:31;3.80;;;2.40;;
58946;SDS011;44724;52.332;4.978;2022-10-16T03:38:56;3.70;;;2.38;;
58946;SDS011;44724;52.332;4.978;2022-10-16T03:41:21;3.42;;;2.47;;
58946;SDS011;44724;52.332;4.978;2022-10-16T03:43:47;3.60;;;1.95;;
58946;SDS011;44724;52.332;4.978;2022-10-16T03:46:12;3.58;;;2.28;;
58946;SDS011;44724;52.332;4.978;2022-10-16T03:48:37;3.08;;;1.98;;
58946;SDS011;44724;52.332;4.978;2022-10-16T03:51:05;1.73;;;1.50;;
58946;SDS011;44724;52.332;4.978;2022-10-16T03:53:30;1.75;;;1.60;;
58946;SDS011;44724;52.332;4.978;2022-10-16T03:55:56;4.22;;;2.40;;
58946;SDS011;44724;52.332;4.978;2022-10-16T03:58:21;4.20;;;2.28;;
58946;SDS011;44724;52.332;4.978;2022-10-16T04:00:47;2.92;;;2.03;;
58946;SDS011;44724;52.332;4.978;2022-10-16T04:03:13;3.05;;;2.00;;
58946;SDS011;44724;52.332;4.978;2022-10-16T04:05:39;2.67;;;1.98;;
58946;SDS011;44724;52.332;4.978;2022-10-16T04:08:05;3.47;;;2.10;;
58946;SDS011;44724;52.332;4.978;2022-10-16T04:10:30;2.40;;;2.20;;
58946;SDS011;44724;52.332;4.978;2022-10-16T04:12:56;3.95;;;2.35;;
58946;SDS011;44724;52.332;4.978;2022-10-16T04:15:21;4.32;;;2.00;;
58946;SDS011;44724;52.332;4.978;2022-10-16T04:17:48;4.65;;;2.03;;
58946;SDS011;44724;52.332;4.978;2022-10-16T04:20:13;2.58;;;2.00;;
58946;SDS011;44724;52.332;4.978;2022-10-16T04:22:39;6.18;;;2.33;;
58946;SDS011;44724;52.332;4.978;2022-10-16T04:25:05;2.58;;;1.33;;
58946;SDS011;44724;52.332;4.978;2022-10-16T04:27:30;2.40;;;2.15;;
58946;SDS011;44724;52.332;4.978;2022-10-16T04:29:56;4.95;;;1.67;;
58946;SDS011;44724;52.332;4.978;2022-10-16T04:32:22;4.35;;;1.92;;
58946;SDS011;44724;52.332;4.978;2022-10-16T04:34:51;3.97;;;1.80;;
58946;SDS011;44724;52.332;4.978;2022-10-16T04:37:16;4.13;;;2.10;;
58946;SDS011;44724;52.332;4.978;2022-10-16T04:39:42;2.40;;;1.67;;
58946;SDS011;44724;52.332;4.978;2022-10-16T04:42:07;2.35;;;2.00;;
58946;SDS011;44724;52.332;4.978;2022-10-16T04:44:33;3.63;;;1.80;;
58946;SDS011;44724;52.332;4.978;2022-10-16T04:46:59;1.95;;;1.05;;
58946;SDS011;44724;52.332;4.978;2022-10-16T04:49:29;2.90;;;1.75;;
58946;SDS011;44724;52.332;4.978;2022-10-16T04:51:54;2.15;;;1.55;;
58946;SDS011;44724;52.332;4.978;2022-10-16T04:54:20;4.13;;;2.00;;
58946;SDS011;44724;52.332;4.978;2022-10-16T04:56:45;1.00;;;0.82;;
58946;SDS011;44724;52.332;4.978;2022-10-16T04:59:15;3.85;;;1.90;;
58946;SDS011;44724;52.332;4.978;2022-10-16T05:01:42;3.35;;;1.77;;
58946;SDS011;44724;52.332;4.978;2022-10-16T05:04:07;2.05;;;1.38;;
58946;SDS011;44724;52.332;4.978;2022-10-16T05:06:33;5.32;;;1.70;;
58946;SDS011;44724;52.332;4.978;2022-10-16T05:08:58;2.55;;;1.60;;
58946;SDS011;44724;52.332;4.978;2022-10-16T05:11:24;5.38;;;1.58;;
58946;SDS011;44724;52.332;4.978;2022-10-16T05:13:49;4.15;;;1.80;;
58946;SDS011;44724;52.332;4.978;2022-10-16T05:16:15;1.60;;;1.50;;
58946;SDS011;44724;52.332;4.978;2022-10-16T05:18:41;2.88;;;1.80;;
58946;SDS011;44724;52.332;4.978;2022-10-16T05:21:06;3.00;;;1.85;;
58946;SDS011;44724;52.332;4.978;2022-10-16T05:23:32;1.40;;;1.23;;
58946;SDS011;44724;52.332;4.978;2022-10-16T05:25:58;2.40;;;1.52;;
58946;SDS011;44724;52.332;4.978;2022-10-16T05:28:25;3.50;;;1.67;;
58946;SDS011;44724;52.332;4.978;2022-10-16T05:30:51;2.05;;;1.50;;
58946;SDS011;44724;52.332;4.978;2022-10-16T05:33:16;3.15;;;1.77;;
58946;SDS011;44724;52.332;4.978;2022-10-16T05:35:42;2.90;;;1.58;;
58946;SDS011;44724;52.332;4.978;2022-10-16T05:38:08;3.22;;;1.15;;
58946;SDS011;44724;52.332;4.978;2022-10-16T05:40:34;2.50;;;1.55;;
58946;SDS011;44724;52.332;4.978;2022-10-16T05:43:00;2.97;;;1.73;;
58946;SDS011;44724;52.332;4.978;2022-10-16T05:45:25;4.30;;;1.60;;
58946;SDS011;44724;52.332;4.978;2022-10-16T05:47:51;3.55;;;1.95;;
58946;SDS011;44724;52.332;4.978;2022-10-16T05:50:17;2.38;;;1.60;;
58946;SDS011;44724;52.332;4.978;2022-10-16T05:52:42;2.45;;;1.40;;
58946;SDS011;44724;52.332;4.978;2022-10-16T05:55:08;3.65;;;1.75;;
58946;SDS011;44724;52.332;4.978;2022-10-16T05:57:33;3.33;;;1.65;;
58946;SDS011;44724;52.332;4.978;2022-10-16T05:59:58;2.30;;;1.67;;
58946;SDS011;44724;52.332;4.978;2022-10-16T06:02:37;1.38;;;1.20;;
58946;SDS011;44724;52.332;4.978;2022-10-16T06:05:03;6.00;;;1.88;;
58946;SDS011;44724;52.332;4.978;2022-10-16T06:07:33;4.00;;;1.52;;
58946;SDS011;44724;52.332;4.978;2022-10-16T06:09:59;3.25;;;1.50;;
58946;SDS011;44724;52.332;4.978;2022-10-16T06:12:26;2.72;;;2.10;;
58946;SDS011;44724;52.332;4.978;2022-10-16T06:14:51;1.80;;;1.20;;
58946;SDS011;44724;52.332;4.978;2022-10-16T06:17:17;4.82;;;2.08;;
58946;SDS011;44724;52.332;4.978;2022-10-16T06:19:42;3.13;;;1.40;;
58946;SDS011;44724;52.332;4.978;2022-10-16T06:22:08;2.92;;;1.10;;
58946;SDS011;44724;52.332;4.978;2022-10-16T06:24:33;2.63;;;1.80;;
58946;SDS011;44724;52.332;4.978;2022-10-16T06:26:58;1.73;;;1.40;;
58946;SDS011;44724;52.332;4.978;2022-10-16T06:29:24;1.83;;;1.27;;
58946;SDS011;44724;52.332;4.978;2022-10-16T06:31:49;3.53;;;1.80;;
58946;SDS011;44724;52.332;4.978;2022-10-16T06:34:15;2.95;;;1.85;;
58946;SDS011;44724;52.332;4.978;2022-10-16T06:36:40;4.00;;;1.92;;
58946;SDS011;44724;52.332;4.978;2022-10-16T06:39:06;3.97;;;1.95;;
58946;SDS011;44724;52.332;4.978;2022-10-16T06:41:32;2.75;;;1.83;;
58946;SDS011;44724;52.332;4.978;2022-10-16T06:44:09;3.30;;;2.25;;
58946;SDS011;44724;52.332;4.978;2022-10-16T06:46:34;4.70;;;2.22;;
58946;SDS011;44724;52.332;4.978;2022-10-16T06:48:59;2.67;;;1.92;;
58946;SDS011;44724;52.332;4.978;2022-10-16T06:51:25;4.50;;;1.70;;
58946;SDS011;44724;52.332;4.978;2022-10-16T06:53:54;3.63;;;1.98;;
58946;SDS011;44724;52.332;4.978;2022-10-16T06:56:25;2.95;;;1.20;;
58946;SDS011;44724;52.332;4.978;2022-10-16T06:58:58;5.70;;;2.33;;
58946;SDS011;44724;52.332;4.978;2022-10-16T07:01:25;4.45;;;2.55;;
58946;SDS011;44724;52.332;4.978;2022-10-16T07:04:00;6.50;;;2.95;;
58946;SDS011;44724;52.332;4.978;2022-10-16T07:06:30;6.35;;;3.13;;
58946;SDS011;44724;52.332;4.978;2022-10-16T07:08:57;4.65;;;3.28;;
58946;SDS011;44724;52.332;4.978;2022-10-16T07:11:23;5.35;;;2.50;;
58946;SDS011;44724;52.332;4.978;2022-10-16T07:13:49;4.25;;;2.15;;
58946;SDS011;44724;52.332;4.978;2022-10-16T07:16:16;3.28;;;1.75;;
58946;SDS011;44724;52.332;4.978;2022-10-16T07:18:43;6.00;;;2.85;;
58946;SDS011;44724;52.332;4.978;2022-10-16T07:21:12;5.55;;;1.80;;
58946;SDS011;44724;52.332;4.978;2022-10-16T07:23:40;3.95;;;1.80;;
58946;SDS011;44724;52.332;4.978;2022-10-16T07:26:06;2.90;;;1.80;;
58946;SDS011;44724;52.332;4.978;2022-10-16T07:28:32;2.85;;;1.30;;
58946;SDS011;44724;52.332;4.978;2022-10-16T07:31:04;5.97;;;1.45;;
58946;SDS011;44724;52.332;4.978;2022-10-16T07:33:33;3.00;;;1.45;;
58946;SDS011;44724;52.332;4.978;2022-10-16T07:35:59;3.58;;;1.60;;
58946;SDS011;44724;52.332;4.978;2022-10-16T07:38:24;3.50;;;1.52;;
58946;SDS011;44724;52.332;4.978;2022-10-16T07:41:00;3.67;;;1.58;;
58946;SDS011;44724;52.332;4.978;2022-10-16T07:43:27;4.18;;;1.70;;
58946;SDS011;44724;52.332;4.978;2022-10-16T07:45:56;3.67;;;0.95;;
58946;SDS011;44724;52.332;4.978;2022-10-16T07:48:22;2.95;;;1.17;;
58946;SDS011;44724;52.332;4.978;2022-10-16T07:50:48;5.00;;;1.33;;
58946;SDS011;44724;52.332;4.978;2022-10-16T07:53:13;3.33;;;1.40;;
58946;SDS011;44724;52.332;4.978;2022-10-16T07:55:39;4.05;;;1.20;;
58946;SDS011;44724;52.332;4.978;2022-10-16T07:58:05;4.75;;;1.23;;
58946;SDS011;44724;52.332;4.978;2022-10-16T08:00:31;3.08;;;1.30;;
58946;SDS011;44724;52.332;4.978;2022-10-16T08:02:57;4.45;;;1.42;;
58946;SDS011;44724;52.332;4.978;2022-10-16T08:05:25;3.17;;;1.10;;
58946;SDS011;44724;52.332;4.978;2022-10-16T08:07:52;3.42;;;1.17;;
58946;SDS011;44724;52.332;4.978;2022-10-16T08:10:18;3.85;;;1.10;;
58946;SDS011;44724;52.332;4.978;2022-10-16T08:12:45;3.13;;;1.20;;
58946;SDS011;44724;52.332;4.978;2022-10-16T08:15:11;5.35;;;1.35;;
58946;SDS011;44724;52.332;4.978;2022-10-16T08:17:37;4.63;;;1.50;;
58946;SDS011;44724;52.332;4.978;2022-10-16T08:20:02;4.25;;;1.45;;
58946;SDS011;44724;52.332;4.978;2022-10-16T08:22:29;2.78;;;1.17;;
58946;SDS011;44724;52.332;4.978;2022-10-16T08:24:54;4.35;;;1.20;;
58946;SDS011;44724;52.332;4.978;2022-10-16T08:27:20;3.42;;;1.50;;
58946;SDS011;44724;52.332;4.978;2022-10-16T08:29:46;3.05;;;1.33;;
58946;SDS011;44724;52.332;4.978;2022-10-16T08:32:13;4.03;;;1.80;;
58946;SDS011;44724;52.332;4.978;2022-10-16T08:34:39;6.95;;;1.65;;
58946;SDS011;44724;52.332;4.978;2022-10-16T08:37:04;5.78;;;1.90;;
58946;SDS011;44724;52.332;4.978;2022-10-16T08:39:29;2.33;;;1.30;;
58946;SDS011;44724;52.332;4.978;2022-10-16T08:50:36;4.00;;;1.10;;
58946;SDS011;44724;52.332;4.978;2022-10-16T08:53:04;2.30;;;1.38;;
58946;SDS011;44724;52.332;4.978;2022-10-16T08:55:33;4.38;;;1.70;;
58946;SDS011;44724;52.332;4.978;2022-10-16T08:58:01;3.20;;;1.58;;
58946;SDS011;44724;52.332;4.978;2022-10-16T09:00:27;4.80;;;1.60;;
58946;SDS011;44724;52.332;4.978;2022-10-16T09:03:02;6.05;;;1.75;;
58946;SDS011;44724;52.332;4.978;2022-10-16T09:08:39;2.38;;;1.20;;
58946;SDS011;44724;52.332;4.978;2022-10-16T09:14:03;4.50;;;1.13;;
58946;SDS011;44724;52.332;4.978;2022-10-16T09:16:44;4.85;;;1.27;;
58946;SDS011;44724;52.332;4.978;2022-10-16T09:19:18;3.22;;;1.30;;
58946;SDS011;44724;52.332;4.978;2022-10-16T09:21:51;4.93;;;1.63;;
58946;SDS011;44724;52.332;4.978;2022-10-16T09:24:19;4.90;;;1.67;;
58946;SDS011;44724;52.332;4.978;2022-10-16T09:26:49;3.57;;;1.43;;
58946;SDS011;44724;52.332;4.978;2022-10-16T09:29:15;5.05;;;1.40;;
58946;SDS011;44724;52.332;4.978;2022-10-16T09:31:45;4.63;;;1.35;;
58946;SDS011;44724;52.332;4.978;2022-10-16T09:34:18;6.15;;;1.98;;
58946;SDS011;44724;52.332;4.978;2022-10-16T09:36:53;7.23;;;1.43;;
58946;SDS011;44724;52.332;4.978;2022-10-16T09:39:19;8.80;;;1.77;;
58946;SDS011;44724;52.332;4.978;2022-10-16T09:41:45;5.32;;;1.85;;
58946;SDS011;44724;52.332;4.978;2022-10-16T09:44:24;5.63;;;1.67;;
58946;SDS011;44724;52.332;4.978;2022-10-16T09:49:28;6.43;;;1.52;;
58946;SDS011;44724;52.332;4.978;2022-10-16T09:52:10;4.07;;;1.30;;
58946;SDS011;44724;52.332;4.978;2022-10-16T09:54:48;5.50;;;1.25;;
58946;SDS011;44724;52.332;4.978;2022-10-16T09:57:14;6.82;;;1.35;;
58946;SDS011;44724;52.332;4.978;2022-10-16T09:59:50;4.20;;;1.30;;
58946;SDS011;44724;52.332;4.978;2022-10-16T10:02:18;4.90;;;1.45;;
58946;SDS011;44724;52.332;4.978;2022-10-16T10:04:49;5.80;;;1.80;;
58946;SDS011;44724;52.332;4.978;2022-10-16T10:07:53;8.50;;;2.13;;
58946;SDS011;44724;52.332;4.978;2022-10-16T10:10:25;5.38;;;1.15;;
58946;SDS011;44724;52.332;4.978;2022-10-16T10:12:52;8.02;;;1.77;;
58946;SDS011;44724;52.332;4.978;2022-10-16T10:15:19;6.57;;;1.38;;
58946;SDS011;44724;52.332;4.978;2022-10-16T10:17:50;6.47;;;1.45;;
58946;SDS011;44724;52.332;4.978;2022-10-16T10:20:28;6.63;;;1.55;;
58946;SDS011;44724;52.332;4.978;2022-10-16T10:23:20;5.07;;;1.33;;
58946;SDS011;44724;52.332;4.978;2022-10-16T10:31:20;6.10;;;1.02;;
58946;SDS011;44724;52.332;4.978;2022-10-16T10:36:57;5.50;;;1.10;;
58946;SDS011;44724;52.332;4.978;2022-10-16T10:39:43;8.85;;;1.52;;
58946;SDS011;44724;52.332;4.978;2022-10-16T10:48:04;5.07;;;1.00;;
58946;SDS011;44724;52.332;4.978;2022-10-16T10:50:46;7.10;;;1.10;;
58946;SDS011;44724;52.332;4.978;2022-10-16T10:56:41;5.40;;;1.02;;
58946;SDS011;44724;52.332;4.978;2022-10-16T11:01:58;5.43;;;0.98;;
58946;SDS011;44724;52.332;4.978;2022-10-16T11:07:36;5.57;;;1.75;;
58946;SDS011;44724;52.332;4.978;2022-10-16T11:10:12;6.50;;;0.85;;
58946;SDS011;44724;52.332;4.978;2022-10-16T11:12:44;7.20;;;1.02;;
58946;SDS011;44724;52.332;4.978;2022-10-16T11:15:15;5.20;;;1.17;;
58946;SDS011;44724;52.332;4.978;2022-10-16T11:18:05;5.85;;;1.52;;
58946;SDS011;44724;52.332;4.978;2022-10-16T11:20:49;6.53;;;1.30;;
58946;SDS011;44724;52.332;4.978;2022-10-16T11:23:31;3.70;;;1.00;;
58946;SDS011;44724;52.332;4.978;2022-10-16T11:26:04;5.53;;;1.00;;
58946;SDS011;44724;52.332;4.978;2022-10-16T11:28:39;4.82;;;1.00;;
58946;SDS011;44724;52.332;4.978;2022-10-16T11:31:11;5.78;;;1.13;;
58946;SDS011;44724;52.332;4.978;2022-10-16T11:33:44;4.30;;;0.90;;
58946;SDS011;44724;52.332;4.978;2022-10-16T11:38:54;6.57;;;1.20;;
58946;SDS011;44724;52.332;4.978;2022-10-16T11:41:24;4.10;;;0.90;;
58946;SDS011;44724;52.332;4.978;2022-10-16T11:44:14;5.22;;;0.90;;
58946;SDS011;44724;52.332;4.978;2022-10-16T11:49:44;5.13;;;1.02;;
58946;SDS011;44724;52.332;4.978;2022-10-16T11:52:20;6.53;;;1.15;;
58946;SDS011;44724;52.332;4.978;2022-10-16T11:55:14;8.32;;;2.00;;
58946;SDS011;44724;52.332;4.978;2022-10-16T11:58:30;2.15;;;0.95;;
58946;SDS011;44724;52.332;4.978;2022-10-16T12:07:14;6.07;;;1.00;;
58946;SDS011;44724;52.332;4.978;2022-10-16T12:09:42;5.65;;;1.10;;
58946;SDS011;44724;52.332;4.978;2022-10-16T12:12:36;3.10;;;0.82;;
58946;SDS011;44724;52.332;4.978;2022-10-16T12:17:54;3.63;;;1.38;;
58946;SDS011;44724;52.332;4.978;2022-10-16T12:20:59;4.50;;;0.80;;
58946;SDS011;44724;52.332;4.978;2022-10-16T12:23:32;9.33;;;1.60;;
58946;SDS011;44724;52.332;4.978;2022-10-16T12:26:14;6.20;;;1.40;;
58946;SDS011;44724;52.332;4.978;2022-10-16T12:28:54;3.53;;;1.08;;
58946;SDS011;44724;52.332;4.978;2022-10-16T12:31:20;3.53;;;0.60;;
58946;SDS011;44724;52.332;4.978;2022-10-16T12:33:55;7.03;;;1.15;;
58946;SDS011;44724;52.332;4.978;2022-10-16T12:36:28;3.88;;;0.82;;
58946;SDS011;44724;52.332;4.978;2022-10-16T12:38:56;2.75;;;0.63;;
58946;SDS011;44724;52.332;4.978;2022-10-16T12:41:38;3.40;;;0.77;;
58946;SDS011;44724;52.332;4.978;2022-10-16T12:44:20;6.35;;;1.20;;
58946;SDS011;44724;52.332;4.978;2022-10-16T12:46:48;5.07;;;1.15;;
58946;SDS011;44724;52.332;4.978;2022-10-16T12:49:22;8.18;;;1.42;;
58946;SDS011;44724;52.332;4.978;2022-10-16T12:51:53;7.75;;;1.33;;
58946;SDS011;44724;52.332;4.978;2022-10-16T12:54:27;9.88;;;1.55;;
58946;SDS011;44724;52.332;4.978;2022-10-16T12:57:07;5.03;;;1.05;;
58946;SDS011;44724;52.332;4.978;2022-10-16T12:59:50;3.88;;;0.90;;
58946;SDS011;44724;52.332;4.978;2022-10-16T13:07:56;6.53;;;1.30;;
58946;SDS011;44724;52.332;4.978;2022-10-16T13:10:26;5.05;;;1.02;;
58946;SDS011;44724;52.332;4.978;2022-10-16T13:19:12;8.52;;;1.02;;
58946;SDS011;44724;52.332;4.978;2022-10-16T13:24:49;5.20;;;0.70;;
58946;SDS011;44724;52.332;4.978;2022-10-16T13:30:26;6.40;;;0.90;;
58946;SDS011;44724;52.332;4.978;2022-10-16T13:33:07;10.77;;;1.17;;
58946;SDS011;44724;52.332;4.978;2022-10-16T13:35:56;1.80;;;0.70;;
58946;SDS011;44724;52.332;4.978;2022-10-16T13:38:29;6.38;;;1.00;;
58946;SDS011;44724;52.332;4.978;2022-10-16T13:40:58;5.30;;;1.00;;
58946;SDS011;44724;52.332;4.978;2022-10-16T13:43:34;5.18;;;1.20;;
58946;SDS011;44724;52.332;4.978;2022-10-16T13:46:04;6.45;;;1.10;;
58946;SDS011;44724;52.332;4.978;2022-10-16T13:51:06;4.88;;;0.85;;
58946;SDS011;44724;52.332;4.978;2022-10-16T13:53:45;4.53;;;0.85;;
58946;SDS011;44724;52.332;4.978;2022-10-16T13:56:14;3.60;;;1.00;;
58946;SDS011;44724;52.332;4.978;2022-10-16T13:58:42;4.70;;;1.05;;
58946;SDS011;44724;52.332;4.978;2022-10-16T14:01:28;5.18;;;1.00;;
58946;SDS011;44724;52.332;4.978;2022-10-16T14:04:00;6.13;;;0.95;;
58946;SDS011;44724;52.332;4.978;2022-10-16T14:06:30;6.65;;;0.95;;
58946;SDS011;44724;52.332;4.978;2022-10-16T14:09:06;9.75;;;1.55;;
58946;SDS011;44724;52.332;4.978;2022-10-16T14:11:36;7.65;;;1.10;;
58946;SDS011;44724;52.332;4.978;2022-10-16T14:14:12;7.22;;;1.40;;
58946;SDS011;44724;52.332;4.978;2022-10-16T14:16:40;4.38;;;1.20;;
58946;SDS011;44724;52.332;4.978;2022-10-16T14:19:24;5.53;;;1.20;;
58946;SDS011;44724;52.332;4.978;2022-10-16T14:21:54;5.10;;;1.23;;
58946;SDS011;44724;52.332;4.978;2022-10-16T14:27:20;8.35;;;1.02;;
58946;SDS011;44724;52.332;4.978;2022-10-16T14:30:15;8.25;;;1.17;;
58946;SDS011;44724;52.332;4.978;2022-10-16T14:32:55;7.35;;;1.60;;
58946;SDS011;44724;52.332;4.978;2022-10-16T14:35:29;6.28;;;1.08;;
58946;SDS011;44724;52.332;4.978;2022-10-16T14:38:03;4.95;;;1.30;;
58946;SDS011;44724;52.332;4.978;2022-10-16T14:40:45;8.43;;;1.10;;
58946;SDS011;44724;52.332;4.978;2022-10-16T14:43:20;4.77;;;0.90;;
58946;SDS011;44724;52.332;4.978;2022-10-16T14:45:53;6.25;;;0.88;;
58946;SDS011;44724;52.332;4.978;2022-10-16T14:48:22;8.88;;;1.67;;
58946;SDS011;44724;52.332;4.978;2022-10-16T14:50:55;5.13;;;1.05;;
58946;SDS011;44724;52.332;4.978;2022-10-16T14:53:22;6.43;;;1.30;;
58946;SDS011;44724;52.332;4.978;2022-10-16T14:55:48;4.82;;;0.90;;
58946;SDS011;44724;52.332;4.978;2022-10-16T14:58:22;6.38;;;1.50;;
58946;SDS011;44724;52.332;4.978;2022-10-16T15:00:49;8.07;;;1.38;;
58946;SDS011;44724;52.332;4.978;2022-10-16T15:03:16;4.10;;;1.27;;
58946;SDS011;44724;52.332;4.978;2022-10-16T15:05:41;6.55;;;1.00;;
58946;SDS011;44724;52.332;4.978;2022-10-16T15:08:07;4.57;;;0.90;;
58946;SDS011;44724;52.332;4.978;2022-10-16T15:10:33;6.70;;;1.08;;
58946;SDS011;44724;52.332;4.978;2022-10-16T15:13:04;6.03;;;1.30;;
58946;SDS011;44724;52.332;4.978;2022-10-16T15:15:34;3.22;;;0.80;;
58946;SDS011;44724;52.332;4.978;2022-10-16T15:18:02;9.65;;;1.10;;
58946;SDS011;44724;52.332;4.978;2022-10-16T15:20:31;7.95;;;1.33;;
58946;SDS011;44724;52.332;4.978;2022-10-16T15:23:00;6.97;;;1.75;;
58946;SDS011;44724;52.332;4.978;2022-10-16T15:25:49;6.40;;;1.20;;
58946;SDS011;44724;52.332;4.978;2022-10-16T15:28:22;7.10;;;1.35;;
58946;SDS011;44724;52.332;4.978;2022-10-16T15:30:50;5.22;;;1.38;;
58946;SDS011;44724;52.332;4.978;2022-10-16T15:33:18;9.07;;;1.20;;
58946;SDS011;44724;52.332;4.978;2022-10-16T15:35:55;6.78;;;1.05;;
58946;SDS011;44724;52.332;4.978;2022-10-16T15:38:23;5.25;;;1.23;;
58946;SDS011;44724;52.332;4.978;2022-10-16T15:40:57;5.57;;;1.50;;
58946;SDS011;44724;52.332;4.978;2022-10-16T15:43:23;5.95;;;1.55;;
58946;SDS011;44724;52.332;4.978;2022-10-16T15:45:59;5.90;;;1.40;;
58946;SDS011;44724;52.332;4.978;2022-10-16T15:48:29;5.45;;;1.45;;
58946;SDS011;44724;52.332;4.978;2022-10-16T15:50:59;8.30;;;1.80;;
58946;SDS011;44724;52.332;4.978;2022-10-16T15:53:28;7.22;;;1.88;;
58946;SDS011;44724;52.332;4.978;2022-10-16T15:55:53;6.97;;;1.70;;
58946;SDS011;44724;52.332;4.978;2022-10-16T15:58:19;8.55;;;1.50;;
58946;SDS011;44724;52.332;4.978;2022-10-16T16:00:45;6.97;;;1.80;;
58946;SDS011;44724;52.332;4.978;2022-10-16T16:03:10;7.38;;;1.65;;
58946;SDS011;44724;52.332;4.978;2022-10-16T16:05:37;7.63;;;1.58;;
58946;SDS011;44724;52.332;4.978;2022-10-16T16:08:04;5.65;;;1.42;;
58946;SDS011;44724;52.332;4.978;2022-10-16T16:10:30;8.85;;;1.88;;
58946;SDS011;44724;52.332;4.978;2022-10-16T16:12:55;4.53;;;1.52;;
58946;SDS011;44724;52.332;4.978;2022-10-16T16:15:21;8.90;;;2.20;;
58946;SDS011;44724;52.332;4.978;2022-10-16T16:17:47;6.97;;;1.50;;
58946;SDS011;44724;52.332;4.978;2022-10-16T16:20:13;5.57;;;1.30;;
58946;SDS011;44724;52.332;4.978;2022-10-16T16:22:39;5.65;;;1.15;;
58946;SDS011;44724;52.332;4.978;2022-10-16T16:25:06;6.35;;;2.22;;
58946;SDS011;44724;52.332;4.978;2022-10-16T16:27:31;9.40;;;1.58;;
58946;SDS011;44724;52.332;4.978;2022-10-16T16:29:59;9.10;;;2.05;;
58946;SDS011;44724;52.332;4.978;2022-10-16T16:32:25;6.47;;;1.48;;
58946;SDS011;44724;52.332;4.978;2022-10-16T16:34:51;4.45;;;1.50;;